TAFOR
Diposting tanggal: 10 Juni 2019

Pukul : 06 - 18 UTC

Isi :

TAF WAGI 110500Z 1106/1118 03004KT 7000 BKN015 TEMPO 1106/1109 10006KT 3000 TSRA FEW013CB BKN013=